createdAt,value
2022-07-31T00:01:10.106Z,62.05
2022-07-31T00:03:59.412Z,63.13
2022-07-31T00:06:47.475Z,63.60
2022-07-31T00:09:52.371Z,64.47
2022-07-31T00:12:42.685Z,62.65
2022-07-31T00:15:30.944Z,61.58
2022-07-31T00:18:19.011Z,62.33
2022-07-31T00:21:08.312Z,60.55
2022-07-31T00:23:56.278Z,62.72
2022-07-31T00:26:44.496Z,68.40
2022-07-31T00:29:32.823Z,68.47
2022-07-31T00:32:20.863Z,73.43
2022-07-31T00:35:09.760Z,64.32
2022-07-31T00:38:26.170Z,61.83
2022-07-31T00:41:09.862Z,49.92
2022-07-31T00:43:57.889Z,45.05
2022-07-31T00:46:45.946Z,47.95
2022-07-31T00:49:37.732Z,47.45
2022-07-31T00:52:27.138Z,44.58
2022-07-31T00:55:16.491Z,44.15
2022-07-31T00:58:04.645Z,42.17
2022-07-31T01:00:52.808Z,43.38
2022-07-31T01:03:40.832Z,46.28
2022-07-31T01:06:29.074Z,45.97
2022-07-31T01:09:17.614Z,46.50
2022-07-31T01:12:14.046Z,50.50
2022-07-31T01:15:06.319Z,48.10
2022-07-31T01:17:56.259Z,37.90
2022-07-31T01:20:46.060Z,41.15
2022-07-31T01:23:55.156Z,38.17
2022-07-31T01:27:05.683Z,35.55
2022-07-31T01:30:00.294Z,38.35
2022-07-31T01:32:51.707Z,41.53
2022-07-31T01:35:44.332Z,41.45
2022-07-31T01:38:41.370Z,37.78
2022-07-31T01:41:37.207Z,39.92
2022-07-31T01:44:28.999Z,40.53
2022-07-31T01:47:21.219Z,49.78
2022-07-31T01:50:42.559Z,50.83
2022-07-31T01:53:22.313Z,46.05
2022-07-31T01:56:11.322Z,49.67
2022-07-31T01:59:01.487Z,48.53
2022-07-31T02:02:01.076Z,54.63
2022-07-31T02:04:52.670Z,54.00
2022-07-31T02:07:43.057Z,56.78
2022-07-31T02:10:32.755Z,58.97
2022-07-31T02:13:22.687Z,65.32
2022-07-31T02:16:10.819Z,66.25
2022-07-31T02:19:00.252Z,70.35
2022-07-31T02:21:49.679Z,64.22
2022-07-31T02:24:37.790Z,53.28
2022-07-31T02:27:53.720Z,58.95
2022-07-31T02:30:39.065Z,56.80
2022-07-31T02:33:30.219Z,57.25
2022-07-31T02:36:19.137Z,63.00
2022-07-31T02:39:09.862Z,57.08
2022-07-31T02:42:01.303Z,60.22
2022-07-31T02:44:51.235Z,58.78
2022-07-31T02:47:40.001Z,63.08
2022-07-31T02:50:32.523Z,63.65
2022-07-31T02:53:21.351Z,66.45
2022-07-31T02:56:16.563Z,67.85
2022-07-31T02:59:05.253Z,65.22
2022-07-31T03:02:08.693Z,65.10
2022-07-31T03:05:02.264Z,76.15
2022-07-31T03:07:50.567Z,71.55
2022-07-31T03:10:38.754Z,78.00
2022-07-31T03:13:30.647Z,78.25
2022-07-31T03:16:19.126Z,86.75
2022-07-31T03:19:09.789Z,79.63
2022-07-31T03:21:58.472Z,89.78
2022-07-31T03:24:47.237Z,93.38
2022-07-31T03:27:36.157Z,111.32
2022-07-31T03:30:26.093Z,106.85
2022-07-31T03:33:16.404Z,112.35
2022-07-31T03:36:04.754Z,117.30
2022-07-31T03:38:52.863Z,122.00
2022-07-31T03:41:57.277Z,131.57
2022-07-31T03:44:46.490Z,127.30
2022-07-31T03:47:35.993Z,117.13
2022-07-31T03:50:24.701Z,115.10
2022-07-31T03:53:14.347Z,108.72
2022-07-31T03:56:07.288Z,88.18
2022-07-31T03:58:55.719Z,73.20
2022-07-31T04:02:10.552Z,73.43
2022-07-31T04:05:20.568Z,61.45
2022-07-31T04:08:09.474Z,62.05
2022-07-31T04:10:57.699Z,59.42
2022-07-31T04:13:45.956Z,60.13
2022-07-31T04:16:34.048Z,58.47
2022-07-31T04:19:22.060Z,57.53
2022-07-31T04:22:12.246Z,60.58
2022-07-31T04:25:00.683Z,68.05
2022-07-31T04:30:58.242Z,65.80
2022-07-31T04:33:46.543Z,66.97
2022-07-31T04:36:36.552Z,61.65
2022-07-31T04:39:25.949Z,65.72
2022-07-31T04:42:14.207Z,63.92
2022-07-31T04:45:03.455Z,67.65
2022-07-31T04:47:51.714Z,57.88
2022-07-31T04:50:39.801Z,50.05
2022-07-31T04:53:27.887Z,50.80
2022-07-31T04:56:37.619Z,49.17
2022-07-31T04:59:57.884Z,50.20
2022-07-31T05:02:35.543Z,52.60
2022-07-31T05:05:23.620Z,46.42
2022-07-31T05:08:11.695Z,45.95
2022-07-31T05:11:22.558Z,40.17
2022-07-31T05:14:14.186Z,39.90
2022-07-31T05:17:02.178Z,40.22
2022-07-31T05:20:07.707Z,43.75
2022-07-31T05:23:06.496Z,41.85
2022-07-31T05:26:14.777Z,43.78
2022-07-31T05:29:03.912Z,44.45
2022-07-31T05:31:59.670Z,45.78
2022-07-31T05:34:48.720Z,47.25
2022-07-31T05:37:36.730Z,47.25
2022-07-31T05:40:26.936Z,43.38
2022-07-31T05:43:33.503Z,44.03
2022-07-31T05:46:25.518Z,43.38
2022-07-31T05:49:14.949Z,42.97
2022-07-31T05:52:06.381Z,41.78
2022-07-31T05:54:54.657Z,41.00
2022-07-31T05:57:48.709Z,40.80
2022-07-31T06:00:37.232Z,41.30
2022-07-31T06:03:27.758Z,40.10
2022-07-31T06:06:24.305Z,34.92
2022-07-31T06:09:13.475Z,32.97
2022-07-31T06:12:05.985Z,30.90
2022-07-31T06:14:54.363Z,31.35
2022-07-31T06:17:53.676Z,30.45
2022-07-31T06:20:49.420Z,29.60
2022-07-31T06:23:38.873Z,30.20
2022-07-31T06:26:38.584Z,29.05
2022-07-31T06:29:41.100Z,30.08
2022-07-31T06:32:31.100Z,26.55
2022-07-31T06:35:19.138Z,24.70
2022-07-31T06:38:37.734Z,26.40
2022-07-31T06:41:50.453Z,27.90
2022-07-31T06:44:50.456Z,27.27
2022-07-31T06:48:04.612Z,25.42
2022-07-31T06:51:29.178Z,26.23
2022-07-31T06:54:14.078Z,25.65
2022-07-31T06:57:02.197Z,26.83
2022-07-31T06:59:50.246Z,26.08
2022-07-31T07:02:38.376Z,25.17
2022-07-31T07:05:26.548Z,21.60
2022-07-31T07:08:16.913Z,20.05
2022-07-31T07:11:12.110Z,21.00
2022-07-31T07:14:01.344Z,19.98
2022-07-31T07:16:49.476Z,18.70
2022-07-31T07:19:41.284Z,16.23
2022-07-31T07:22:32.498Z,17.83
2022-07-31T07:25:23.067Z,16.23
2022-07-31T07:28:15.361Z,15.63
2022-07-31T07:31:19.744Z,13.20
2022-07-31T07:34:09.830Z,13.10
2022-07-31T07:36:57.893Z,11.82
2022-07-31T07:39:49.484Z,12.23
2022-07-31T07:42:37.600Z,11.68
2022-07-31T07:45:27.396Z,11.45
2022-07-31T07:48:15.430Z,11.73
2022-07-31T07:51:23.569Z,12.13
2022-07-31T07:54:28.230Z,13.43
2022-07-31T07:57:48.519Z,13.80
2022-07-31T08:01:07.022Z,12.70
2022-07-31T08:03:55.275Z,12.65
2022-07-31T08:06:43.555Z,12.30
2022-07-31T08:09:31.886Z,12.02
2022-07-31T08:12:42.606Z,10.13
2022-07-31T08:15:56.653Z,13.23
2022-07-31T08:18:54.765Z,11.82
2022-07-31T08:21:43.496Z,11.98
2022-07-31T08:24:31.668Z,13.27
2022-07-31T08:27:39.684Z,11.93
2022-07-31T08:30:29.229Z,12.20
2022-07-31T08:33:19.298Z,12.40
2022-07-31T08:36:16.256Z,11.73
2022-07-31T08:39:04.686Z,10.00
2022-07-31T08:42:09.949Z,9.63
2022-07-31T08:44:58.338Z,9.68
2022-07-31T08:47:50.969Z,9.48
2022-07-31T08:50:48.839Z,10.25
2022-07-31T08:54:03.541Z,9.77
2022-07-31T08:56:52.937Z,8.82
2022-07-31T08:59:41.986Z,6.90
2022-07-31T09:02:29.992Z,7.00
2022-07-31T09:05:43.466Z,6.20
2022-07-31T09:08:34.465Z,6.32
2022-07-31T09:11:25.239Z,6.35
2022-07-31T09:14:29.610Z,6.35
2022-07-31T09:17:17.746Z,6.60
2022-07-31T09:20:06.919Z,6.82
2022-07-31T09:23:06.024Z,6.78
2022-07-31T09:25:56.614Z,6.72
2022-07-31T09:28:48.742Z,7.20
2022-07-31T09:31:37.091Z,7.28
2022-07-31T09:34:47.621Z,7.22
2022-07-31T09:37:40.105Z,7.47
2022-07-31T09:40:57.568Z,6.93
2022-07-31T09:43:55.411Z,6.97
2022-07-31T09:46:48.070Z,6.95
2022-07-31T09:49:36.556Z,6.93
2022-07-31T09:52:26.420Z,6.32
2022-07-31T09:55:17.096Z,6.35
2022-07-31T09:58:07.158Z,5.90
2022-07-31T10:01:02.558Z,5.72
2022-07-31T10:03:53.872Z,5.90
2022-07-31T10:06:43.059Z,5.35
2022-07-31T10:09:34.260Z,5.47
2022-07-31T10:12:50.567Z,5.88
2022-07-31T10:15:40.699Z,5.85
2022-07-31T10:19:00.353Z,5.97
2022-07-31T10:22:05.485Z,6.07
2022-07-31T10:25:01.840Z,6.13
2022-07-31T10:27:51.222Z,6.13
2022-07-31T10:30:39.688Z,6.30
2022-07-31T10:33:43.679Z,6.53
2022-07-31T10:37:11.576Z,6.00
2022-07-31T10:40:27.503Z,6.10
2022-07-31T10:43:25.608Z,5.85
2022-07-31T10:46:31.792Z,5.70
2022-07-31T10:49:43.430Z,5.50
2022-07-31T10:53:00.316Z,4.60
2022-07-31T10:56:01.809Z,4.70
2022-07-31T10:59:00.023Z,4.95
2022-07-31T11:02:08.373Z,5.10
2022-07-31T11:05:11.731Z,5.22
2022-07-31T11:08:19.727Z,4.78
2022-07-31T11:11:13.465Z,4.60
2022-07-31T11:14:13.361Z,4.28
2022-07-31T11:17:07.090Z,4.28
2022-07-31T11:20:02.796Z,4.53
2022-07-31T11:22:55.626Z,4.70
2022-07-31T11:25:46.386Z,4.80
2022-07-31T11:28:35.320Z,4.65
2022-07-31T11:31:29.748Z,4.68
2022-07-31T11:34:17.806Z,5.00
2022-07-31T11:37:06.652Z,4.90
2022-07-31T11:39:56.261Z,5.22
2022-07-31T11:42:47.013Z,4.97
2022-07-31T11:45:47.055Z,5.18
2022-07-31T11:48:44.955Z,5.35
2022-07-31T11:51:33.639Z,5.13
2022-07-31T11:54:25.522Z,4.97
2022-07-31T11:57:13.556Z,5.30
2022-07-31T12:00:29.306Z,5.40
2022-07-31T12:03:19.546Z,5.07
2022-07-31T12:06:10.155Z,5.40
2022-07-31T12:08:58.421Z,5.28
2022-07-31T12:11:46.462Z,5.40
2022-07-31T12:14:36.212Z,5.40
2022-07-31T12:17:25.653Z,5.40
2022-07-31T12:20:25.337Z,5.60
2022-07-31T12:23:41.117Z,5.20
2022-07-31T12:26:31.131Z,5.30
2022-07-31T12:29:20.184Z,5.10
2022-07-31T12:32:08.805Z,5.13
2022-07-31T12:35:06.076Z,5.35
2022-07-31T12:37:54.149Z,4.63
2022-07-31T12:40:42.652Z,4.72
2022-07-31T12:43:30.828Z,4.65
2022-07-31T12:46:18.820Z,4.80
2022-07-31T12:49:08.307Z,5.25
2022-07-31T12:51:58.140Z,5.22
2022-07-31T12:54:46.436Z,5.10
2022-07-31T12:57:34.472Z,5.22
2022-07-31T13:00:27.978Z,5.00
2022-07-31T13:03:16.016Z,5.10
2022-07-31T13:06:04.092Z,5.13
2022-07-31T13:08:53.869Z,5.55
2022-07-31T13:11:48.158Z,5.60
2022-07-31T13:14:36.805Z,5.45
2022-07-31T13:17:24.815Z,5.40
2022-07-31T13:20:16.617Z,5.53
2022-07-31T13:23:05.183Z,5.72
2022-07-31T13:25:54.801Z,5.65
2022-07-31T13:28:42.896Z,5.72
2022-07-31T13:31:30.973Z,5.55
2022-07-31T13:34:18.987Z,5.53
2022-07-31T13:37:07.267Z,5.38
2022-07-31T13:39:55.513Z,5.18
2022-07-31T13:42:44.834Z,5.20
2022-07-31T13:45:32.825Z,5.45
2022-07-31T13:48:20.831Z,5.28
2022-07-31T13:51:08.844Z,5.60
2022-07-31T13:53:57.040Z,5.88
2022-07-31T13:56:45.057Z,6.05
2022-07-31T13:59:34.656Z,5.65
2022-07-31T14:02:22.706Z,5.32
2022-07-31T14:05:11.156Z,5.57
2022-07-31T14:08:32.661Z,6.05
2022-07-31T14:11:13.813Z,6.10
2022-07-31T14:14:03.052Z,5.95
2022-07-31T14:16:52.385Z,6.45
2022-07-31T14:19:44.617Z,6.30
2022-07-31T14:22:32.760Z,5.97
2022-07-31T14:25:20.882Z,6.25
2022-07-31T14:28:10.625Z,6.15
2022-07-31T14:30:58.642Z,6.70
2022-07-31T14:33:48.108Z,6.10
2022-07-31T14:36:36.107Z,6.03
2022-07-31T14:39:24.126Z,6.25
2022-07-31T14:42:12.640Z,6.53
2022-07-31T14:45:02.883Z,6.47
2022-07-31T14:47:51.374Z,6.53
2022-07-31T14:50:40.860Z,6.05
2022-07-31T14:53:28.991Z,6.03
2022-07-31T14:56:30.682Z,5.47
2022-07-31T14:59:25.099Z,5.60
2022-07-31T15:02:13.165Z,4.70
2022-07-31T15:06:39.869Z,4.70
2022-07-31T15:08:10.605Z,4.53
2022-07-31T15:10:58.660Z,4.57
2022-07-31T15:13:46.688Z,4.72
2022-07-31T15:16:34.775Z,4.32
2022-07-31T15:19:22.802Z,4.47
2022-07-31T15:22:17.138Z,4.70
2022-07-31T15:25:08.639Z,4.20
2022-07-31T15:27:56.835Z,4.32
2022-07-31T15:30:44.926Z,4.43
2022-07-31T15:33:33.342Z,4.30
2022-07-31T15:36:24.493Z,4.18
2022-07-31T15:39:12.502Z,4.40
2022-07-31T15:42:02.599Z,4.55
2022-07-31T15:44:50.614Z,4.30
2022-07-31T15:47:39.305Z,4.43
2022-07-31T15:50:27.400Z,4.68
2022-07-31T15:53:15.409Z,4.70
2022-07-31T15:56:03.520Z,5.10
2022-07-31T15:58:54.775Z,4.75
2022-07-31T16:01:42.765Z,4.95
2022-07-31T16:04:31.588Z,4.72
2022-07-31T16:08:29.638Z,4.82
2022-07-31T16:10:28.230Z,4.70
2022-07-31T16:13:16.263Z,4.78
2022-07-31T16:16:06.329Z,4.82
2022-07-31T16:18:54.378Z,4.75
2022-07-31T16:21:42.429Z,5.13
2022-07-31T16:24:30.508Z,4.95
2022-07-31T16:27:18.530Z,5.03
2022-07-31T16:30:08.410Z,5.00
2022-07-31T16:32:57.809Z,5.30
2022-07-31T16:35:45.806Z,5.38
2022-07-31T16:38:34.254Z,5.00
2022-07-31T16:41:22.759Z,4.90
2022-07-31T16:44:10.753Z,5.07
2022-07-31T16:46:58.745Z,5.00
2022-07-31T16:49:48.636Z,4.93
2022-07-31T16:52:36.835Z,5.53
2022-07-31T16:55:46.134Z,5.40
2022-07-31T16:58:35.682Z,5.70
2022-07-31T17:01:57.855Z,5.40
2022-07-31T17:04:31.879Z,5.10
2022-07-31T17:07:21.217Z,4.80
2022-07-31T17:10:09.838Z,4.80
2022-07-31T17:12:57.825Z,4.63
2022-07-31T17:15:45.836Z,5.03
2022-07-31T17:18:34.056Z,4.95
2022-07-31T17:21:23.738Z,5.13
2022-07-31T17:24:20.225Z,4.97
2022-07-31T17:27:10.738Z,5.10
2022-07-31T17:29:58.888Z,5.43
2022-07-31T17:32:46.913Z,5.10
2022-07-31T17:35:35.249Z,5.18
2022-07-31T17:38:23.261Z,4.68
2022-07-31T17:41:25.114Z,4.63
2022-07-31T17:44:14.692Z,4.32
2022-07-31T17:47:03.753Z,4.63
2022-07-31T17:49:54.136Z,4.75
2022-07-31T17:52:42.172Z,4.68
2022-07-31T17:55:30.238Z,5.25
2022-07-31T17:58:20.114Z,5.22
2022-07-31T18:01:08.367Z,5.00
2022-07-31T18:03:56.457Z,4.93
2022-07-31T18:06:45.214Z,5.45
2022-07-31T18:09:35.101Z,5.65
2022-07-31T18:12:24.354Z,5.85
2022-07-31T18:15:14.567Z,5.90
2022-07-31T18:18:02.578Z,5.70
2022-07-31T18:20:50.580Z,6.15
2022-07-31T18:23:43.607Z,6.18
2022-07-31T18:26:37.205Z,6.68
2022-07-31T18:29:25.349Z,6.68
2022-07-31T18:32:14.704Z,6.68
2022-07-31T18:35:03.202Z,6.97
2022-07-31T18:37:52.590Z,7.13
2022-07-31T18:40:40.643Z,7.55
2022-07-31T18:43:28.836Z,6.72
2022-07-31T18:46:16.926Z,7.05
2022-07-31T18:49:07.656Z,6.75
2022-07-31T18:52:15.597Z,6.38
2022-07-31T18:55:03.723Z,6.82
2022-07-31T18:57:51.798Z,7.22
2022-07-31T19:00:40.122Z,7.20
2022-07-31T19:03:29.871Z,6.88
2022-07-31T19:06:19.467Z,6.70
2022-07-31T19:09:07.447Z,6.65
2022-07-31T19:11:58.782Z,6.70
2022-07-31T19:14:47.054Z,6.00
2022-07-31T19:17:44.045Z,5.85
2022-07-31T19:20:40.433Z,5.85
2022-07-31T19:23:43.670Z,6.53
2022-07-31T19:26:31.775Z,7.40
2022-07-31T19:29:20.658Z,8.38
2022-07-31T19:32:08.987Z,8.32
2022-07-31T19:34:57.180Z,7.55
2022-07-31T19:37:45.230Z,7.75
2022-07-31T19:40:34.630Z,7.97
2022-07-31T19:43:22.708Z,10.00
2022-07-31T19:46:12.746Z,11.80
2022-07-31T19:49:02.766Z,11.80
2022-07-31T19:51:50.818Z,12.05
2022-07-31T19:54:39.755Z,13.73
2022-07-31T19:57:29.126Z,13.88
2022-07-31T20:00:17.339Z,17.42
2022-07-31T20:03:05.352Z,22.20
2022-07-31T20:05:53.460Z,25.60
2022-07-31T20:08:41.477Z,27.30
2022-07-31T20:11:29.542Z,30.27
2022-07-31T20:14:18.943Z,28.73
2022-07-31T20:17:07.004Z,31.80
2022-07-31T20:20:14.737Z,32.70
2022-07-31T20:23:05.410Z,35.00
2022-07-31T20:25:53.929Z,36.00
2022-07-31T20:28:42.489Z,39.42
2022-07-31T20:31:31.949Z,40.05
2022-07-31T20:34:20.030Z,45.95
2022-07-31T20:37:08.084Z,50.83
2022-07-31T20:39:56.124Z,57.63
2022-07-31T20:42:44.315Z,61.30
2022-07-31T20:45:32.601Z,61.95
2022-07-31T20:48:32.414Z,60.42
2022-07-31T20:51:23.165Z,65.03
2022-07-31T20:54:11.222Z,73.25
2022-07-31T20:56:59.271Z,77.57
2022-07-31T20:59:47.291Z,73.38
2022-07-31T21:02:35.476Z,70.18
2022-07-31T21:05:29.181Z,79.50
2022-07-31T21:08:17.802Z,78.35
2022-07-31T21:11:05.983Z,87.47
2022-07-31T21:13:53.954Z,86.60
2022-07-31T21:16:42.431Z,86.28
2022-07-31T21:19:30.397Z,79.75
2022-07-31T21:22:19.752Z,96.80
2022-07-31T21:25:10.223Z,102.90
2022-07-31T21:27:58.463Z,106.13
2022-07-31T21:30:46.841Z,111.45
2022-07-31T21:33:35.252Z,112.15
2022-07-31T21:36:23.817Z,116.40
2022-07-31T21:39:18.717Z,120.57
2022-07-31T21:42:08.479Z,117.45
2022-07-31T21:44:57.108Z,108.07
2022-07-31T21:47:53.065Z,103.88
2022-07-31T21:50:43.994Z,102.32
2022-07-31T21:53:31.977Z,92.22
2022-07-31T21:56:21.391Z,86.00
2022-07-31T21:59:09.397Z,83.90
2022-07-31T22:02:01.991Z,78.30
2022-07-31T22:05:08.118Z,75.35
2022-07-31T22:07:56.196Z,72.25
2022-07-31T22:10:44.615Z,71.18
2022-07-31T22:13:34.004Z,71.47
2022-07-31T22:16:22.097Z,73.60
2022-07-31T22:19:11.739Z,73.40
2022-07-31T22:22:01.038Z,75.13
2022-07-31T22:24:49.614Z,75.40
2022-07-31T22:27:56.451Z,81.20
2022-07-31T22:30:46.682Z,83.18
2022-07-31T22:33:34.840Z,80.53
2022-07-31T22:36:25.015Z,79.35
2022-07-31T22:39:13.241Z,75.05
2022-07-31T22:42:01.467Z,75.43
2022-07-31T22:44:49.789Z,73.90
2022-07-31T22:47:39.878Z,81.43
2022-07-31T22:50:28.003Z,83.20
2022-07-31T22:53:17.677Z,85.88
2022-07-31T22:56:05.882Z,82.88
2022-07-31T22:58:54.724Z,82.97
2022-07-31T23:01:42.794Z,79.95
2022-07-31T23:04:32.186Z,83.13
2022-07-31T23:07:20.192Z,82.28
2022-07-31T23:10:11.069Z,84.45
2022-07-31T23:12:59.161Z,82.68
2022-07-31T23:15:47.157Z,88.43
2022-07-31T23:18:35.208Z,83.10
2022-07-31T23:21:25.250Z,81.15
2022-07-31T23:24:13.307Z,84.75
2022-07-31T23:27:08.017Z,90.90
2022-07-31T23:29:56.300Z,77.65
2022-07-31T23:32:44.350Z,85.90
2022-07-31T23:35:32.332Z,90.57
2022-07-31T23:38:21.754Z,90.95
2022-07-31T23:41:09.995Z,99.85
2022-07-31T23:43:57.045Z,96.57
2022-07-31T23:46:45.250Z,97.22
2022-07-31T23:49:37.576Z,94.55
2022-07-31T23:52:25.690Z,92.78
2022-07-31T23:55:15.096Z,91.45
2022-07-31T23:58:03.184Z,96.53
